createdAt,value
2024-04-09T00:01:31.471Z,1.40
2024-04-09T00:06:26.803Z,1.08
2024-04-09T00:08:57.300Z,1.85
2024-04-09T00:11:24.546Z,0.90
2024-04-09T00:13:55.634Z,1.23
2024-04-09T00:16:30.738Z,1.23
2024-04-09T00:18:59.046Z,0.80
2024-04-09T00:21:27.789Z,0.77
2024-04-09T00:23:58.611Z,1.02
2024-04-09T00:26:25.656Z,0.75
2024-04-09T00:28:52.949Z,0.98
2024-04-09T00:31:22.329Z,0.88
2024-04-09T00:33:49.431Z,0.98
2024-04-09T00:36:16.419Z,0.88
2024-04-09T00:41:12.102Z,0.80
2024-04-09T00:43:39.180Z,1.02
2024-04-09T00:46:06.778Z,1.20
2024-04-09T00:48:34.887Z,0.90
2024-04-09T00:51:02.512Z,0.77
2024-04-09T00:53:30.014Z,1.00
2024-04-09T00:55:57.607Z,0.63
2024-04-09T00:58:25.380Z,0.90
2024-04-09T01:00:54.525Z,0.85
2024-04-09T01:03:21.888Z,0.88
2024-04-09T01:05:49.017Z,0.80
2024-04-09T01:10:42.557Z,1.30
2024-04-09T01:13:09.377Z,0.77
2024-04-09T01:15:37.715Z,0.90
2024-04-09T01:18:05.063Z,0.90
2024-04-09T01:20:31.910Z,1.15
2024-04-09T01:22:58.692Z,1.00
2024-04-09T01:25:25.554Z,0.60
2024-04-09T01:27:52.820Z,1.48
2024-04-09T01:30:20.411Z,1.20
2024-04-09T01:32:47.940Z,1.13
2024-04-09T01:35:15.701Z,1.02
2024-04-09T01:37:44.099Z,0.60
2024-04-09T01:40:12.118Z,1.00
2024-04-09T01:42:39.083Z,1.00
2024-04-09T01:47:34.142Z,0.68
2024-04-09T01:50:01.095Z,1.08
2024-04-09T01:52:27.937Z,1.02
2024-04-09T01:54:54.850Z,0.77
2024-04-09T01:59:48.534Z,1.60
2024-04-09T02:02:18.061Z,1.20
2024-04-09T02:04:45.674Z,1.20
2024-04-09T02:07:13.095Z,1.40
2024-04-09T02:09:40.139Z,1.15
2024-04-09T02:12:09.310Z,1.23
2024-04-09T02:14:36.852Z,0.90
2024-04-09T02:17:03.819Z,1.00
2024-04-09T02:21:57.761Z,1.17
2024-04-09T02:24:25.479Z,1.20
2024-04-09T02:26:52.404Z,1.23
2024-04-09T02:29:19.200Z,0.88
2024-04-09T02:31:46.082Z,0.85
2024-04-09T02:34:12.901Z,0.80
2024-04-09T02:36:39.810Z,1.02
2024-04-09T02:41:40.913Z,0.77
2024-04-09T02:44:08.784Z,1.10
2024-04-09T02:46:37.339Z,0.90
2024-04-09T02:49:04.871Z,1.00
2024-04-09T02:51:31.950Z,1.20
2024-04-09T02:53:58.845Z,1.00
2024-04-09T02:56:25.725Z,0.88
2024-04-09T02:58:52.493Z,1.10
2024-04-09T03:01:19.546Z,0.90
2024-04-09T03:03:46.528Z,1.02
2024-04-09T03:06:14.909Z,0.88
2024-04-09T03:08:43.482Z,0.90
2024-04-09T03:11:17.880Z,1.08
2024-04-09T03:13:47.842Z,0.93
2024-04-09T03:16:16.733Z,1.13
2024-04-09T03:18:44.996Z,1.00
2024-04-09T03:21:12.582Z,1.05
2024-04-09T03:23:41.004Z,0.88
2024-04-09T03:26:10.382Z,1.30
2024-04-09T03:28:37.265Z,2.30
2024-04-09T03:33:32.032Z,1.25
2024-04-09T03:36:00.932Z,1.15
2024-04-09T03:38:28.553Z,1.17
2024-04-09T03:41:00.747Z,1.77
2024-04-09T03:43:28.420Z,1.38
2024-04-09T03:46:12.290Z,1.25
2024-04-09T03:48:46.323Z,1.20
2024-04-09T03:51:15.994Z,1.50
2024-04-09T03:53:43.447Z,1.40
2024-04-09T03:56:14.305Z,1.60
2024-04-09T03:58:43.204Z,1.27
2024-04-09T04:01:10.920Z,1.40
2024-04-09T04:03:42.963Z,1.80
2024-04-09T04:06:10.072Z,1.60
2024-04-09T04:11:06.976Z,1.27
2024-04-09T04:13:35.486Z,1.40
2024-04-09T04:16:06.769Z,1.95
2024-04-09T04:18:47.456Z,2.08
2024-04-09T04:21:17.571Z,2.10
2024-04-09T04:23:46.718Z,2.10
2024-04-09T04:26:14.721Z,1.42
2024-04-09T04:28:43.499Z,1.40
2024-04-09T04:31:12.752Z,1.92
2024-04-09T04:33:40.854Z,2.17
2024-04-09T04:36:09.494Z,1.60
2024-04-09T04:38:37.252Z,2.00
2024-04-09T04:41:05.951Z,1.65
2024-04-09T04:43:33.443Z,1.83
2024-04-09T04:46:00.821Z,2.03
2024-04-09T04:48:31.318Z,1.75
2024-04-09T04:50:58.736Z,1.77
2024-04-09T04:53:28.591Z,1.48
2024-04-09T04:55:55.513Z,1.85
2024-04-09T04:58:22.304Z,1.70
2024-04-09T05:00:49.532Z,1.52
2024-04-09T05:03:16.568Z,2.20
2024-04-09T05:05:43.472Z,1.83
2024-04-09T05:08:10.327Z,1.92
2024-04-09T05:10:38.821Z,1.80
2024-04-09T05:13:05.940Z,2.20
2024-04-09T05:17:59.977Z,1.30
2024-04-09T05:20:30.508Z,1.77
2024-04-09T05:22:59.045Z,1.90
2024-04-09T05:25:31.788Z,1.88
2024-04-09T05:27:58.846Z,2.35
2024-04-09T05:32:52.906Z,1.85
2024-04-09T05:35:22.606Z,1.63
2024-04-09T05:37:51.531Z,1.90
2024-04-09T05:40:18.785Z,1.92
2024-04-09T05:42:48.170Z,2.15
2024-04-09T05:45:17.557Z,1.73
2024-04-09T05:47:44.716Z,2.00
2024-04-09T05:50:11.976Z,1.90
2024-04-09T05:52:39.063Z,1.95
2024-04-09T05:55:07.301Z,1.70
2024-04-09T05:57:39.353Z,1.23
2024-04-09T06:00:17.023Z,1.88
2024-04-09T06:02:46.309Z,1.90
2024-04-09T06:05:13.196Z,1.35
2024-04-09T06:10:07.119Z,1.90
2024-04-09T06:12:34.720Z,2.03
2024-04-09T06:15:02.181Z,2.33
2024-04-09T06:17:30.062Z,1.95
2024-04-09T06:19:58.960Z,1.90
2024-04-09T06:22:26.792Z,2.28
2024-04-09T06:24:53.931Z,2.10
2024-04-09T06:27:20.875Z,2.00
2024-04-09T06:29:47.796Z,2.05
2024-04-09T06:32:14.771Z,1.85
2024-04-09T06:34:43.598Z,1.70
2024-04-09T06:37:10.895Z,2.33
2024-04-09T06:39:38.252Z,1.92
2024-04-09T06:42:06.490Z,2.00
2024-04-09T06:44:33.711Z,2.00
2024-04-09T06:47:01.199Z,1.73
2024-04-09T06:49:28.260Z,1.90
2024-04-09T06:51:55.476Z,2.05
2024-04-09T06:54:22.913Z,1.70
2024-04-09T06:56:50.176Z,1.88
2024-04-09T06:59:17.549Z,1.85
2024-04-09T07:01:44.691Z,1.80
2024-04-09T07:04:11.857Z,1.52
2024-04-09T07:06:39.661Z,2.03
2024-04-09T07:09:07.814Z,1.80
2024-04-09T07:11:35.265Z,1.40
2024-04-09T07:14:02.241Z,1.73
2024-04-09T07:16:29.146Z,2.13
2024-04-09T07:18:56.203Z,1.75
2024-04-09T07:21:23.245Z,2.05
2024-04-09T07:23:50.622Z,2.00
2024-04-09T07:26:17.927Z,2.42
2024-04-09T07:28:45.040Z,2.72
2024-04-09T07:31:12.251Z,2.92
2024-04-09T07:33:39.730Z,2.63
2024-04-09T07:36:07.642Z,2.58
2024-04-09T07:38:34.595Z,2.53
2024-04-09T07:41:01.916Z,2.60
2024-04-09T07:43:34.264Z,3.20
2024-04-09T07:46:03.361Z,2.85
2024-04-09T07:48:30.490Z,2.80
2024-04-09T07:50:57.683Z,3.03
2024-04-09T07:53:24.628Z,2.67
2024-04-09T07:55:52.249Z,2.80
2024-04-09T07:58:19.072Z,2.45
2024-04-09T08:00:46.099Z,2.30
2024-04-09T08:03:13.217Z,2.10
2024-04-09T08:05:41.033Z,2.50
2024-04-09T08:08:09.346Z,2.50
2024-04-09T08:10:37.048Z,2.88
2024-04-09T08:13:04.179Z,2.17
2024-04-09T08:15:31.379Z,2.53
2024-04-09T08:17:58.938Z,2.50
2024-04-09T08:20:26.009Z,2.60
2024-04-09T08:22:53.629Z,2.00
2024-04-09T08:25:21.983Z,2.60
2024-04-09T08:27:52.817Z,2.45
2024-04-09T08:30:19.871Z,3.20
2024-04-09T08:32:51.801Z,2.83
2024-04-09T08:35:19.017Z,2.45
2024-04-09T08:37:46.588Z,2.97
2024-04-09T08:40:15.278Z,2.90
2024-04-09T08:42:46.262Z,2.65
2024-04-09T08:45:17.278Z,2.50
2024-04-09T08:47:50.318Z,2.85
2024-04-09T08:50:18.101Z,2.60
2024-04-09T08:52:46.367Z,2.30
2024-04-09T08:55:14.610Z,2.80
2024-04-09T08:57:42.494Z,2.63
2024-04-09T09:00:09.713Z,2.58
2024-04-09T09:02:37.087Z,2.70
2024-04-09T09:05:04.274Z,3.00
2024-04-09T09:07:31.367Z,2.47
2024-04-09T09:10:04.699Z,2.03
2024-04-09T09:12:31.743Z,2.42
2024-04-09T09:15:05.581Z,2.75
2024-04-09T09:17:34.871Z,2.63
2024-04-09T09:20:10.313Z,2.92
2024-04-09T09:22:49.042Z,2.33
2024-04-09T09:25:20.309Z,2.45
2024-04-09T09:27:47.858Z,3.00
2024-04-09T09:30:15.859Z,2.60
2024-04-09T09:32:51.732Z,2.45
2024-04-09T09:35:19.797Z,2.80
2024-04-09T09:37:50.776Z,3.30
2024-04-09T09:40:18.372Z,2.65
2024-04-09T09:42:46.771Z,2.88
2024-04-09T09:45:15.103Z,3.42
2024-04-09T09:47:42.224Z,3.03
2024-04-09T09:50:18.163Z,2.85
2024-04-09T09:52:46.718Z,2.55
2024-04-09T09:55:14.066Z,2.28
2024-04-09T09:57:46.079Z,2.80
2024-04-09T10:00:17.022Z,3.08
2024-04-09T10:05:16.756Z,2.65
2024-04-09T10:07:47.150Z,2.80
2024-04-09T10:10:25.192Z,2.47
2024-04-09T10:12:55.366Z,2.53
2024-04-09T10:15:29.436Z,2.60
2024-04-09T10:18:05.320Z,3.20
2024-04-09T10:20:37.217Z,3.20
2024-04-09T10:23:07.296Z,3.03
2024-04-09T10:25:41.524Z,3.17
2024-04-09T10:28:12.711Z,3.58
2024-04-09T10:30:41.578Z,3.30
2024-04-09T10:33:09.269Z,2.78
2024-04-09T10:35:36.312Z,2.65
2024-04-09T10:38:07.466Z,3.38
2024-04-09T10:40:38.129Z,3.10
2024-04-09T10:43:09.450Z,2.58
2024-04-09T10:45:47.679Z,3.20
2024-04-09T10:48:23.882Z,2.60
2024-04-09T10:50:52.219Z,2.17
2024-04-09T10:53:19.626Z,2.60
2024-04-09T10:55:46.761Z,2.85
2024-04-09T10:58:18.572Z,2.53
2024-04-09T11:00:56.211Z,2.38
2024-04-09T11:03:24.738Z,2.65
2024-04-09T11:05:52.881Z,2.00
2024-04-09T11:08:31.870Z,2.17
2024-04-09T11:11:03.398Z,1.75
2024-04-09T11:13:31.795Z,1.85
2024-04-09T11:15:59.284Z,2.08
2024-04-09T11:18:27.047Z,1.73
2024-04-09T11:20:56.887Z,1.58
2024-04-09T11:23:24.859Z,1.95
2024-04-09T11:25:55.431Z,2.38
2024-04-09T11:28:24.061Z,1.77
2024-04-09T11:30:55.784Z,1.63
2024-04-09T11:33:23.180Z,1.80
2024-04-09T11:35:54.617Z,1.90
2024-04-09T11:38:22.197Z,1.77
2024-04-09T11:40:49.178Z,1.50
2024-04-09T11:43:16.094Z,1.27
2024-04-09T11:45:43.680Z,1.25
2024-04-09T11:48:12.633Z,1.75
2024-04-09T11:50:39.709Z,1.90
2024-04-09T11:53:07.074Z,2.53
2024-04-09T11:55:34.044Z,2.03
2024-04-09T11:58:00.897Z,1.95
2024-04-09T12:00:27.971Z,1.75
2024-04-09T12:02:55.597Z,1.75
2024-04-09T12:05:23.435Z,1.80
2024-04-09T12:07:50.422Z,1.58
2024-04-09T12:10:17.758Z,1.67
2024-04-09T12:12:44.834Z,1.83
2024-04-09T12:15:11.875Z,1.55
2024-04-09T12:17:39.034Z,1.88
2024-04-09T12:20:06.690Z,1.73
2024-04-09T12:22:34.416Z,1.85
2024-04-09T12:25:01.653Z,1.65
2024-04-09T12:27:29.165Z,1.52
2024-04-09T12:29:56.004Z,1.70
2024-04-09T12:32:23.332Z,1.98
2024-04-09T12:34:52.089Z,2.63
2024-04-09T12:37:19.068Z,2.35
2024-04-09T12:39:45.913Z,2.03
2024-04-09T12:42:12.957Z,1.88
2024-04-09T12:44:39.771Z,1.90
2024-04-09T12:47:07.266Z,2.10
2024-04-09T12:49:42.034Z,2.38
2024-04-09T12:52:14.941Z,2.33
2024-04-09T12:54:42.837Z,2.83
2024-04-09T12:57:09.851Z,2.28
2024-04-09T13:02:12.922Z,1.85
2024-04-09T13:04:40.387Z,2.25
2024-04-09T13:07:10.256Z,2.00
2024-04-09T13:09:37.567Z,1.55
2024-04-09T13:12:04.915Z,2.10
2024-04-09T13:14:31.831Z,1.60
2024-04-09T13:17:01.532Z,1.58
2024-04-09T13:19:31.336Z,1.85
2024-04-09T13:21:58.267Z,1.60
2024-04-09T13:24:25.051Z,2.08
2024-04-09T13:26:51.919Z,1.90
2024-04-09T13:29:19.025Z,1.73
2024-04-09T13:31:46.127Z,2.28
2024-04-09T13:34:13.486Z,1.77
2024-04-09T13:36:40.365Z,2.03
2024-04-09T13:39:09.087Z,2.00
2024-04-09T13:41:35.955Z,2.83
2024-04-09T13:44:03.028Z,2.33
2024-04-09T13:46:29.935Z,1.90
2024-04-09T13:48:57.385Z,1.90
2024-04-09T13:51:24.395Z,1.73
2024-04-09T13:53:52.042Z,1.95
2024-04-09T13:56:19.250Z,1.65
2024-04-09T13:58:46.146Z,2.13
2024-04-09T14:01:13.309Z,1.52
2024-04-09T14:03:40.661Z,2.05
2024-04-09T14:06:07.975Z,1.88
2024-04-09T14:08:35.016Z,1.42
2024-04-09T14:11:02.885Z,1.85
2024-04-09T14:13:30.124Z,2.30
2024-04-09T14:15:57.437Z,1.85
2024-04-09T14:18:32.108Z,1.83
2024-04-09T14:21:03.729Z,2.58
2024-04-09T14:23:31.504Z,1.70
2024-04-09T14:25:59.639Z,1.80
2024-04-09T14:28:26.556Z,2.05
2024-04-09T14:30:53.613Z,2.10
2024-04-09T14:33:20.437Z,1.55
2024-04-09T14:35:47.299Z,2.08
2024-04-09T14:38:14.191Z,2.47
2024-04-09T14:40:42.114Z,1.95
2024-04-09T14:43:09.208Z,1.60
2024-04-09T14:45:36.189Z,1.35
2024-04-09T14:48:03.827Z,1.63
2024-04-09T14:50:30.977Z,1.50
2024-04-09T14:52:57.870Z,1.65
2024-04-09T14:55:24.756Z,1.60
2024-04-09T14:57:51.811Z,1.38
2024-04-09T15:00:19.143Z,1.50
2024-04-09T15:02:46.140Z,1.45
2024-04-09T15:05:14.223Z,1.58
2024-04-09T15:07:41.336Z,1.05
2024-04-09T15:10:09.077Z,2.22
2024-04-09T15:12:42.665Z,1.15
2024-04-09T15:15:09.996Z,2.03
2024-04-09T15:17:36.900Z,1.63
2024-04-09T15:20:05.275Z,1.77
2024-04-09T15:22:32.134Z,1.15
2024-04-09T15:24:58.913Z,1.60
2024-04-09T15:27:25.700Z,1.50
2024-04-09T15:29:52.475Z,2.15
2024-04-09T15:32:19.548Z,1.60
2024-04-09T15:34:49.651Z,1.55
2024-04-09T15:37:17.142Z,1.50
2024-04-09T15:39:43.923Z,1.50
2024-04-09T15:42:11.079Z,2.15
2024-04-09T15:44:38.045Z,1.90
2024-04-09T15:47:05.104Z,1.75
2024-04-09T15:49:31.995Z,1.65
2024-04-09T15:51:58.892Z,2.03
2024-04-09T15:54:25.757Z,1.80
2024-04-09T15:56:52.600Z,2.03
2024-04-09T15:59:19.450Z,1.33
2024-04-09T16:01:49.303Z,1.33
2024-04-09T16:04:16.490Z,1.40
2024-04-09T16:06:46.742Z,1.30
2024-04-09T16:09:17.395Z,2.38
2024-04-09T16:11:44.536Z,1.60
2024-04-09T16:14:11.669Z,1.00
2024-04-09T16:16:38.615Z,1.17
2024-04-09T16:19:10.032Z,0.90
2024-04-09T16:21:38.492Z,1.55
2024-04-09T16:24:05.436Z,1.45
2024-04-09T16:26:32.353Z,2.13
2024-04-09T16:28:59.587Z,1.30
2024-04-09T16:31:26.400Z,1.30
2024-04-09T16:33:54.043Z,1.00
2024-04-09T16:36:21.073Z,0.85
2024-04-09T16:41:16.042Z,0.77
2024-04-09T16:43:43.567Z,1.17
2024-04-09T16:46:11.052Z,0.70
2024-04-09T16:48:38.177Z,0.50
2024-04-09T16:51:06.119Z,0.45
2024-04-09T16:53:33.147Z,0.60
2024-04-09T16:56:04.221Z,0.57
2024-04-09T16:58:31.808Z,0.70
2024-04-09T17:00:59.258Z,0.38
2024-04-09T17:03:26.392Z,1.10
2024-04-09T17:05:53.634Z,0.40
2024-04-09T17:08:21.398Z,0.50
2024-04-09T17:10:58.020Z,0.28
2024-04-09T17:13:25.266Z,0.38
2024-04-09T17:15:52.518Z,0.50
2024-04-09T17:18:19.608Z,0.32
2024-04-09T17:20:47.200Z,0.40
2024-04-09T17:23:15.946Z,0.20
2024-04-09T17:25:42.837Z,0.40
2024-04-09T17:28:09.701Z,0.30
2024-04-09T17:30:36.756Z,0.20
2024-04-09T17:33:04.079Z,0.45
2024-04-09T17:35:33.330Z,0.40
2024-04-09T17:38:03.231Z,0.30
2024-04-09T17:40:30.126Z,0.55
2024-04-09T17:42:58.629Z,0.35
2024-04-09T17:45:25.445Z,0.30
2024-04-09T17:47:52.512Z,0.65
2024-04-09T17:50:19.573Z,0.10
2024-04-09T17:55:13.500Z,0.10
2024-04-09T17:57:40.305Z,0.10
2024-04-09T18:00:07.947Z,0.15
2024-04-09T18:02:35.029Z,0.38
2024-04-09T18:05:02.110Z,0.28
2024-04-09T18:09:55.926Z,0.10
2024-04-09T18:12:24.621Z,0.20
2024-04-09T18:14:51.506Z,0.10
2024-04-09T18:17:24.041Z,0.22
2024-04-09T18:19:51.365Z,0.13
2024-04-09T18:24:45.318Z,0.40
2024-04-09T18:27:12.131Z,0.30
2024-04-09T18:29:38.911Z,0.30
2024-04-09T18:32:06.946Z,0.40
2024-04-09T18:34:37.046Z,0.30
2024-04-09T18:37:04.544Z,0.20
2024-04-09T18:39:31.430Z,0.20
2024-04-09T18:41:58.222Z,0.55
2024-04-09T18:44:30.255Z,0.22
2024-04-09T18:46:57.286Z,0.20
2024-04-09T18:49:24.194Z,0.30
2024-04-09T18:51:51.113Z,0.30
2024-04-09T18:54:17.879Z,0.50
2024-04-09T18:56:44.817Z,0.30
2024-04-09T18:59:11.650Z,0.30
2024-04-09T19:01:39.006Z,0.43
2024-04-09T19:04:07.727Z,0.47
2024-04-09T19:06:34.599Z,0.32
2024-04-09T19:09:01.383Z,0.55
2024-04-09T19:11:29.139Z,0.40
2024-04-09T19:13:57.044Z,0.45
2024-04-09T19:16:26.231Z,0.40
2024-04-09T19:18:53.194Z,0.30
2024-04-09T19:21:20.231Z,0.50
2024-04-09T19:26:14.270Z,0.50
2024-04-09T19:31:07.992Z,0.47
2024-04-09T19:33:36.342Z,0.65
2024-04-09T19:36:04.856Z,0.65
2024-04-09T19:38:31.873Z,0.63
2024-04-09T19:40:58.971Z,0.63
2024-04-09T19:46:09.595Z,0.52
2024-04-09T19:48:36.860Z,0.60
2024-04-09T19:51:04.383Z,0.30
2024-04-09T19:56:18.482Z,0.30
2024-04-09T20:01:12.270Z,0.47
2024-04-09T20:03:39.250Z,0.40
2024-04-09T20:06:06.319Z,0.32
2024-04-09T20:08:33.192Z,0.40
2024-04-09T20:11:03.323Z,0.50
2024-04-09T20:13:30.217Z,0.35
2024-04-09T20:15:57.046Z,0.30
2024-04-09T20:18:27.209Z,0.70
2024-04-09T20:20:54.397Z,0.40
2024-04-09T20:23:21.401Z,0.40
2024-04-09T20:25:59.201Z,0.50
2024-04-09T20:28:26.201Z,0.50
2024-04-09T20:30:54.215Z,0.70
2024-04-09T20:33:21.371Z,0.50
2024-04-09T20:35:48.396Z,0.50
2024-04-09T20:40:42.984Z,0.50
2024-04-09T20:43:09.775Z,0.50
2024-04-09T20:45:36.747Z,0.40
2024-04-09T20:48:04.273Z,0.60
2024-04-09T20:50:31.472Z,0.70
2024-04-09T20:52:59.100Z,0.50
2024-04-09T20:55:25.961Z,0.55
2024-04-09T20:57:53.277Z,0.40
2024-04-09T21:00:20.113Z,0.50
2024-04-09T21:02:47.290Z,0.45
2024-04-09T21:07:41.555Z,0.50
2024-04-09T21:10:09.798Z,0.40
2024-04-09T21:12:37.234Z,0.50
2024-04-09T21:15:05.302Z,0.40
2024-04-09T21:17:32.763Z,0.40
2024-04-09T21:19:59.790Z,0.30
2024-04-09T21:22:26.619Z,0.57
2024-04-09T21:24:53.428Z,0.40
2024-04-09T21:27:20.244Z,0.45
2024-04-09T21:29:47.034Z,0.30
2024-04-09T21:32:14.104Z,0.20
2024-04-09T21:37:08.834Z,0.40
2024-04-09T21:39:35.986Z,0.93
2024-04-09T21:44:29.633Z,0.50
2024-04-09T21:46:56.539Z,0.50
2024-04-09T21:49:23.775Z,0.28
2024-04-09T21:51:50.756Z,0.40
2024-04-09T21:54:17.734Z,0.52
2024-04-09T21:56:44.552Z,0.40
2024-04-09T21:59:11.404Z,0.43
2024-04-09T22:01:38.364Z,0.30
2024-04-09T22:04:05.350Z,0.40
2024-04-09T22:06:32.171Z,0.63
2024-04-09T22:08:58.997Z,0.40
2024-04-09T22:11:25.955Z,0.60
2024-04-09T22:13:52.911Z,0.52
2024-04-09T22:16:19.711Z,0.55
2024-04-09T22:18:46.629Z,0.47
2024-04-09T22:21:13.694Z,0.30
2024-04-09T22:23:40.609Z,0.60
2024-04-09T22:26:07.511Z,0.40
2024-04-09T22:28:35.285Z,0.47
2024-04-09T22:31:05.227Z,0.50
2024-04-09T22:33:32.331Z,0.40
2024-04-09T22:38:26.210Z,0.40
2024-04-09T22:40:53.566Z,0.40
2024-04-09T22:43:20.432Z,0.28
2024-04-09T22:45:47.312Z,0.52
2024-04-09T22:48:14.539Z,0.20
2024-04-09T22:50:41.822Z,0.40
2024-04-09T22:53:08.730Z,0.32
2024-04-09T22:55:35.549Z,0.40
2024-04-09T22:58:02.360Z,0.35
2024-04-09T23:00:29.158Z,0.20
2024-04-09T23:02:56.061Z,0.30
2024-04-09T23:05:23.119Z,0.25
2024-04-09T23:07:49.988Z,0.20
2024-04-09T23:10:16.914Z,0.28
2024-04-09T23:12:43.710Z,0.15
2024-04-09T23:15:10.616Z,0.40
2024-04-09T23:17:37.624Z,0.77
2024-04-09T23:20:05.047Z,0.52
2024-04-09T23:22:31.911Z,0.68
2024-04-09T23:24:58.707Z,0.25
2024-04-09T23:27:25.505Z,0.73
2024-04-09T23:29:52.346Z,0.70
2024-04-09T23:32:19.278Z,0.52
2024-04-09T23:34:46.714Z,0.50
2024-04-09T23:37:13.620Z,0.30
2024-04-09T23:39:40.425Z,0.50
2024-04-09T23:42:07.868Z,0.25
2024-04-09T23:44:34.877Z,0.45
2024-04-09T23:47:03.128Z,0.32
2024-04-09T23:49:30.853Z,0.32
2024-04-09T23:54:24.400Z,0.20
2024-04-09T23:56:51.337Z,0.28
2024-04-09T23:59:19.002Z,0.10
